sensor_id;sensor_type;location;lat;lon;timestamp;P1;durP1;ratioP1;P2;durP2;ratioP2
13090;SDS011;6611;52.604;13.438;2023-03-24T00:04:11;3.83;;;2.80;;
13090;SDS011;6611;52.604;13.438;2023-03-24T00:09:14;3.87;;;2.83;;
13090;SDS011;6611;52.604;13.438;2023-03-24T00:14:16;4.93;;;2.53;;
13090;SDS011;6611;52.604;13.438;2023-03-24T00:19:18;3.87;;;2.57;;
13090;SDS011;6611;52.604;13.438;2023-03-24T00:24:23;3.07;;;2.40;;
13090;SDS011;6611;52.604;13.438;2023-03-24T00:29:24;3.37;;;2.10;;
13090;SDS011;6611;52.604;13.438;2023-03-24T00:34:26;2.93;;;2.43;;
13090;SDS011;6611;52.604;13.438;2023-03-24T00:39:30;3.43;;;2.10;;
13090;SDS011;6611;52.604;13.438;2023-03-24T00:44:32;3.67;;;2.37;;
13090;SDS011;6611;52.604;13.438;2023-03-24T00:49:34;2.97;;;2.23;;
13090;SDS011;6611;52.604;13.438;2023-03-24T00:54:46;2.00;;;1.80;;
13090;SDS011;6611;52.604;13.438;2023-03-24T00:59:49;2.33;;;1.70;;
13090;SDS011;6611;52.604;13.438;2023-03-24T01:04:52;4.07;;;2.33;;
13090;SDS011;6611;52.604;13.438;2023-03-24T01:09:55;2.17;;;1.93;;
13090;SDS011;6611;52.604;13.438;2023-03-24T01:14:58;2.90;;;2.27;;
13090;SDS011;6611;52.604;13.438;2023-03-24T01:20:01;3.00;;;1.97;;
13090;SDS011;6611;52.604;13.438;2023-03-24T01:25:10;2.20;;;2.00;;
13090;SDS011;6611;52.604;13.438;2023-03-24T01:30:14;2.10;;;1.90;;
13090;SDS011;6611;52.604;13.438;2023-03-24T01:35:17;1.90;;;1.70;;
13090;SDS011;6611;52.604;13.438;2023-03-24T01:40:21;3.53;;;2.10;;
13090;SDS011;6611;52.604;13.438;2023-03-24T01:45:47;2.93;;;1.97;;
13090;SDS011;6611;52.604;13.438;2023-03-24T01:50:57;2.30;;;1.73;;
13090;SDS011;6611;52.604;13.438;2023-03-24T01:56:03;1.77;;;1.50;;
13090;SDS011;6611;52.604;13.438;2023-03-24T02:01:07;2.10;;;1.80;;
13090;SDS011;6611;52.604;13.438;2023-03-24T02:06:10;2.80;;;1.90;;
13090;SDS011;6611;52.604;13.438;2023-03-24T02:11:14;2.83;;;2.00;;
13090;SDS011;6611;52.604;13.438;2023-03-24T02:16:23;3.07;;;2.00;;
13090;SDS011;6611;52.604;13.438;2023-03-24T02:21:43;3.07;;;2.10;;
13090;SDS011;6611;52.604;13.438;2023-03-24T02:27:20;2.37;;;1.80;;
13090;SDS011;6611;52.604;13.438;2023-03-24T02:32:43;1.87;;;1.73;;
13090;SDS011;6611;52.604;13.438;2023-03-24T02:43:35;2.13;;;1.93;;
13090;SDS011;6611;52.604;13.438;2023-03-24T02:48:48;2.30;;;1.70;;
13090;SDS011;6611;52.604;13.438;2023-03-24T02:54:02;1.97;;;1.60;;
13090;SDS011;6611;52.604;13.438;2023-03-24T02:59:13;2.00;;;1.80;;
13090;SDS011;6611;52.604;13.438;2023-03-24T03:04:19;2.07;;;1.67;;
13090;SDS011;6611;52.604;13.438;2023-03-24T03:09:26;1.87;;;1.50;;
13090;SDS011;6611;52.604;13.438;2023-03-24T03:14:31;1.70;;;1.50;;
13090;SDS011;6611;52.604;13.438;2023-03-24T03:19:38;1.90;;;1.70;;
13090;SDS011;6611;52.604;13.438;2023-03-24T03:24:43;2.47;;;1.90;;
13090;SDS011;6611;52.604;13.438;2023-03-24T03:29:51;1.80;;;1.53;;
13090;SDS011;6611;52.604;13.438;2023-03-24T03:34:58;1.90;;;1.70;;
13090;SDS011;6611;52.604;13.438;2023-03-24T03:40:03;2.90;;;1.73;;
13090;SDS011;6611;52.604;13.438;2023-03-24T03:45:12;2.23;;;1.90;;
13090;SDS011;6611;52.604;13.438;2023-03-24T03:50:14;2.27;;;1.80;;
13090;SDS011;6611;52.604;13.438;2023-03-24T03:55:16;2.27;;;1.87;;
13090;SDS011;6611;52.604;13.438;2023-03-24T04:00:20;2.27;;;1.97;;
13090;SDS011;6611;52.604;13.438;2023-03-24T04:05:23;1.80;;;1.60;;
13090;SDS011;6611;52.604;13.438;2023-03-24T04:10:32;2.93;;;1.90;;
13090;SDS011;6611;52.604;13.438;2023-03-24T04:15:43;2.43;;;1.90;;
13090;SDS011;6611;52.604;13.438;2023-03-24T04:20:52;2.60;;;1.93;;
13090;SDS011;6611;52.604;13.438;2023-03-24T04:26:08;3.57;;;2.20;;
13090;SDS011;6611;52.604;13.438;2023-03-24T04:31:19;2.53;;;2.07;;
13090;SDS011;6611;52.604;13.438;2023-03-24T04:36:28;3.47;;;2.53;;
13090;SDS011;6611;52.604;13.438;2023-03-24T04:41:41;3.40;;;2.30;;
13090;SDS011;6611;52.604;13.438;2023-03-24T04:46:45;3.27;;;2.70;;
13090;SDS011;6611;52.604;13.438;2023-03-24T04:51:47;2.47;;;2.27;;
13090;SDS011;6611;52.604;13.438;2023-03-24T04:56:51;3.27;;;2.30;;
13090;SDS011;6611;52.604;13.438;2023-03-24T05:01:55;2.83;;;2.40;;
13090;SDS011;6611;52.604;13.438;2023-03-24T05:06:56;2.77;;;2.57;;
13090;SDS011;6611;52.604;13.438;2023-03-24T05:11:58;3.00;;;2.20;;
13090;SDS011;6611;52.604;13.438;2023-03-24T05:17:01;5.63;;;2.90;;
13090;SDS011;6611;52.604;13.438;2023-03-24T05:22:03;3.17;;;2.43;;
13090;SDS011;6611;52.604;13.438;2023-03-24T05:27:05;3.17;;;2.27;;
13090;SDS011;6611;52.604;13.438;2023-03-24T05:32:08;3.67;;;2.67;;
13090;SDS011;6611;52.604;13.438;2023-03-24T05:37:12;3.13;;;2.10;;
13090;SDS011;6611;52.604;13.438;2023-03-24T05:42:16;3.27;;;2.57;;
13090;SDS011;6611;52.604;13.438;2023-03-24T05:47:19;3.17;;;2.33;;
13090;SDS011;6611;52.604;13.438;2023-03-24T05:52:20;3.80;;;2.10;;
13090;SDS011;6611;52.604;13.438;2023-03-24T05:57:22;3.30;;;2.10;;
13090;SDS011;6611;52.604;13.438;2023-03-24T06:02:25;3.07;;;2.20;;
13090;SDS011;6611;52.604;13.438;2023-03-24T06:07:27;2.40;;;2.10;;
13090;SDS011;6611;52.604;13.438;2023-03-24T06:12:29;2.60;;;2.13;;
13090;SDS011;6611;52.604;13.438;2023-03-24T06:17:32;2.43;;;2.00;;
13090;SDS011;6611;52.604;13.438;2023-03-24T06:22:36;3.40;;;2.20;;
13090;SDS011;6611;52.604;13.438;2023-03-24T06:27:40;3.90;;;2.10;;
13090;SDS011;6611;52.604;13.438;2023-03-24T06:32:46;3.03;;;1.97;;
13090;SDS011;6611;52.604;13.438;2023-03-24T06:37:49;2.50;;;1.90;;
13090;SDS011;6611;52.604;13.438;2023-03-24T06:42:51;2.00;;;1.80;;
13090;SDS011;6611;52.604;13.438;2023-03-24T06:47:54;2.60;;;2.23;;
13090;SDS011;6611;52.604;13.438;2023-03-24T06:52:56;2.37;;;2.17;;
13090;SDS011;6611;52.604;13.438;2023-03-24T06:57:57;5.07;;;2.13;;
13090;SDS011;6611;52.604;13.438;2023-03-24T07:03:00;2.83;;;2.27;;
13090;SDS011;6611;52.604;13.438;2023-03-24T07:08:02;2.57;;;2.07;;
13090;SDS011;6611;52.604;13.438;2023-03-24T07:13:04;2.73;;;2.07;;
13090;SDS011;6611;52.604;13.438;2023-03-24T07:18:07;3.63;;;2.47;;
13090;SDS011;6611;52.604;13.438;2023-03-24T07:23:09;2.40;;;2.20;;
13090;SDS011;6611;52.604;13.438;2023-03-24T07:28:10;3.37;;;2.40;;
13090;SDS011;6611;52.604;13.438;2023-03-24T07:33:13;4.17;;;2.17;;
13090;SDS011;6611;52.604;13.438;2023-03-24T07:38:15;3.43;;;2.43;;
13090;SDS011;6611;52.604;13.438;2023-03-24T07:43:17;2.80;;;2.20;;
13090;SDS011;6611;52.604;13.438;2023-03-24T07:48:20;2.93;;;2.13;;
13090;SDS011;6611;52.604;13.438;2023-03-24T07:53:21;3.40;;;2.03;;
13090;SDS011;6611;52.604;13.438;2023-03-24T07:58:23;3.60;;;2.20;;
13090;SDS011;6611;52.604;13.438;2023-03-24T08:03:26;3.67;;;2.17;;
13090;SDS011;6611;52.604;13.438;2023-03-24T08:08:28;3.87;;;2.23;;
13090;SDS011;6611;52.604;13.438;2023-03-24T08:13:30;2.63;;;2.10;;
13090;SDS011;6611;52.604;13.438;2023-03-24T08:18:33;3.03;;;2.23;;
13090;SDS011;6611;52.604;13.438;2023-03-24T08:23:35;2.20;;;1.97;;
13090;SDS011;6611;52.604;13.438;2023-03-24T08:28:37;3.63;;;2.07;;
13090;SDS011;6611;52.604;13.438;2023-03-24T08:33:40;2.87;;;2.13;;
13090;SDS011;6611;52.604;13.438;2023-03-24T08:38:42;2.67;;;2.30;;
13090;SDS011;6611;52.604;13.438;2023-03-24T08:43:43;2.90;;;2.27;;
13090;SDS011;6611;52.604;13.438;2023-03-24T08:48:46;2.07;;;1.87;;
13090;SDS011;6611;52.604;13.438;2023-03-24T08:53:48;3.70;;;2.40;;
13090;SDS011;6611;52.604;13.438;2023-03-24T08:58:51;4.43;;;2.10;;
13090;SDS011;6611;52.604;13.438;2023-03-24T09:03:55;2.33;;;1.93;;
13090;SDS011;6611;52.604;13.438;2023-03-24T09:08:56;2.07;;;1.83;;
13090;SDS011;6611;52.604;13.438;2023-03-24T09:13:58;3.27;;;2.50;;
13090;SDS011;6611;52.604;13.438;2023-03-24T09:19:01;4.73;;;2.20;;
13090;SDS011;6611;52.604;13.438;2023-03-24T09:24:03;3.63;;;2.27;;
13090;SDS011;6611;52.604;13.438;2023-03-24T09:29:06;3.90;;;2.37;;
13090;SDS011;6611;52.604;13.438;2023-03-24T09:34:09;4.73;;;2.20;;
13090;SDS011;6611;52.604;13.438;2023-03-24T09:39:10;3.50;;;2.57;;
13090;SDS011;6611;52.604;13.438;2023-03-24T09:44:15;2.33;;;1.93;;
13090;SDS011;6611;52.604;13.438;2023-03-24T09:49:26;2.73;;;2.07;;
13090;SDS011;6611;52.604;13.438;2023-03-24T09:54:30;2.40;;;2.13;;
13090;SDS011;6611;52.604;13.438;2023-03-24T09:59:40;2.90;;;2.13;;
13090;SDS011;6611;52.604;13.438;2023-03-24T10:04:43;2.23;;;2.03;;
13090;SDS011;6611;52.604;13.438;2023-03-24T10:09:46;2.60;;;2.00;;
13090;SDS011;6611;52.604;13.438;2023-03-24T10:15:00;2.33;;;1.70;;
13090;SDS011;6611;52.604;13.438;2023-03-24T10:20:11;1.93;;;1.70;;
13090;SDS011;6611;52.604;13.438;2023-03-24T10:25:24;2.77;;;1.50;;
13090;SDS011;6611;52.604;13.438;2023-03-24T10:30:31;2.70;;;1.90;;
13090;SDS011;6611;52.604;13.438;2023-03-24T10:35:39;1.60;;;1.23;;
13090;SDS011;6611;52.604;13.438;2023-03-24T10:40:44;1.60;;;1.30;;
13090;SDS011;6611;52.604;13.438;2023-03-24T10:45:47;1.30;;;1.20;;
13090;SDS011;6611;52.604;13.438;2023-03-24T10:50:53;2.53;;;1.67;;
13090;SDS011;6611;52.604;13.438;2023-03-24T10:55:59;2.00;;;1.60;;
13090;SDS011;6611;52.604;13.438;2023-03-24T11:01:01;3.03;;;1.90;;
13090;SDS011;6611;52.604;13.438;2023-03-24T11:06:12;1.80;;;1.60;;
13090;SDS011;6611;52.604;13.438;2023-03-24T11:11:26;2.17;;;1.67;;
13090;SDS011;6611;52.604;13.438;2023-03-24T11:16:34;2.97;;;1.90;;
13090;SDS011;6611;52.604;13.438;2023-03-24T11:21:38;1.80;;;1.47;;
13090;SDS011;6611;52.604;13.438;2023-03-24T11:26:43;1.80;;;1.57;;
13090;SDS011;6611;52.604;13.438;2023-03-24T11:31:50;1.90;;;1.73;;
13090;SDS011;6611;52.604;13.438;2023-03-24T11:36:55;1.90;;;1.70;;
13090;SDS011;6611;52.604;13.438;2023-03-24T11:42:02;2.10;;;1.83;;
13090;SDS011;6611;52.604;13.438;2023-03-24T11:47:20;1.70;;;1.60;;
13090;SDS011;6611;52.604;13.438;2023-03-24T11:52:27;1.50;;;1.33;;
13090;SDS011;6611;52.604;13.438;2023-03-24T11:57:38;1.40;;;1.30;;
13090;SDS011;6611;52.604;13.438;2023-03-24T12:02:51;2.30;;;1.50;;
13090;SDS011;6611;52.604;13.438;2023-03-24T12:08:12;1.93;;;1.43;;
13090;SDS011;6611;52.604;13.438;2023-03-24T12:13:25;1.60;;;1.27;;
13090;SDS011;6611;52.604;13.438;2023-03-24T12:18:40;1.40;;;1.30;;
13090;SDS011;6611;52.604;13.438;2023-03-24T12:23:56;1.63;;;1.27;;
13090;SDS011;6611;52.604;13.438;2023-03-24T12:29:08;1.20;;;1.10;;
13090;SDS011;6611;52.604;13.438;2023-03-24T12:34:37;1.37;;;1.27;;
13090;SDS011;6611;52.604;13.438;2023-03-24T12:40:25;2.93;;;1.20;;
13090;SDS011;6611;52.604;13.438;2023-03-24T12:45:35;1.30;;;1.20;;
13090;SDS011;6611;52.604;13.438;2023-03-24T12:50:47;0.83;;;0.83;;
13090;SDS011;6611;52.604;13.438;2023-03-24T12:56:00;1.20;;;1.00;;
13090;SDS011;6611;52.604;13.438;2023-03-24T13:01:10;1.87;;;1.00;;
13090;SDS011;6611;52.604;13.438;2023-03-24T13:06:21;2.00;;;0.80;;
13090;SDS011;6611;52.604;13.438;2023-03-24T13:11:32;0.90;;;0.77;;
13090;SDS011;6611;52.604;13.438;2023-03-24T13:16:38;1.97;;;0.83;;
13090;SDS011;6611;52.604;13.438;2023-03-24T13:21:42;2.40;;;0.70;;
13090;SDS011;6611;52.604;13.438;2023-03-24T13:26:49;0.77;;;0.70;;
13090;SDS011;6611;52.604;13.438;2023-03-24T13:31:58;0.80;;;0.80;;
13090;SDS011;6611;52.604;13.438;2023-03-24T13:37:05;0.77;;;0.63;;
13090;SDS011;6611;52.604;13.438;2023-03-24T13:42:23;0.70;;;0.60;;
13090;SDS011;6611;52.604;13.438;2023-03-24T13:52:50;1.63;;;0.70;;
13090;SDS011;6611;52.604;13.438;2023-03-24T13:57:54;1.53;;;0.80;;
13090;SDS011;6611;52.604;13.438;2023-03-24T14:03:11;1.17;;;0.67;;
13090;SDS011;6611;52.604;13.438;2023-03-24T14:08:16;0.70;;;0.60;;
13090;SDS011;6611;52.604;13.438;2023-03-24T14:13:20;1.33;;;0.80;;
13090;SDS011;6611;52.604;13.438;2023-03-24T14:18:38;0.40;;;0.40;;
13090;SDS011;6611;52.604;13.438;2023-03-24T14:23:42;1.73;;;0.67;;
13090;SDS011;6611;52.604;13.438;2023-03-24T14:28:47;2.47;;;0.80;;
13090;SDS011;6611;52.604;13.438;2023-03-24T14:34:00;0.73;;;0.50;;
13090;SDS011;6611;52.604;13.438;2023-03-24T14:39:11;1.60;;;0.80;;
13090;SDS011;6611;52.604;13.438;2023-03-24T14:49:54;1.60;;;0.53;;
13090;SDS011;6611;52.604;13.438;2023-03-24T14:54:57;1.40;;;0.93;;
13090;SDS011;6611;52.604;13.438;2023-03-24T15:00:03;1.83;;;0.60;;
13090;SDS011;6611;52.604;13.438;2023-03-24T15:05:13;0.87;;;0.70;;
13090;SDS011;6611;52.604;13.438;2023-03-24T15:10:17;1.33;;;0.43;;
13090;SDS011;6611;52.604;13.438;2023-03-24T15:15:21;0.50;;;0.50;;
13090;SDS011;6611;52.604;13.438;2023-03-24T15:20:24;1.30;;;0.60;;
13090;SDS011;6611;52.604;13.438;2023-03-24T15:25:28;2.90;;;0.83;;
13090;SDS011;6611;52.604;13.438;2023-03-24T15:30:31;2.00;;;0.63;;
13090;SDS011;6611;52.604;13.438;2023-03-24T15:35:33;2.67;;;0.90;;
13090;SDS011;6611;52.604;13.438;2023-03-24T15:40:38;2.23;;;0.80;;
13090;SDS011;6611;52.604;13.438;2023-03-24T15:45:43;2.87;;;0.93;;
13090;SDS011;6611;52.604;13.438;2023-03-24T15:50:53;2.07;;;0.70;;
13090;SDS011;6611;52.604;13.438;2023-03-24T15:56:00;2.87;;;0.80;;
13090;SDS011;6611;52.604;13.438;2023-03-24T16:01:08;1.73;;;0.80;;
13090;SDS011;6611;52.604;13.438;2023-03-24T16:06:13;2.10;;;0.80;;
13090;SDS011;6611;52.604;13.438;2023-03-24T16:11:16;1.80;;;0.87;;
13090;SDS011;6611;52.604;13.438;2023-03-24T16:16:23;3.10;;;1.00;;
13090;SDS011;6611;52.604;13.438;2023-03-24T16:21:27;1.00;;;0.70;;
13090;SDS011;6611;52.604;13.438;2023-03-24T16:26:30;1.77;;;1.00;;
13090;SDS011;6611;52.604;13.438;2023-03-24T16:31:34;2.17;;;0.87;;
13090;SDS011;6611;52.604;13.438;2023-03-24T16:36:36;1.93;;;0.97;;
13090;SDS011;6611;52.604;13.438;2023-03-24T16:41:37;3.73;;;0.80;;
13090;SDS011;6611;52.604;13.438;2023-03-24T16:46:41;2.43;;;1.00;;
13090;SDS011;6611;52.604;13.438;2023-03-24T16:51:43;1.97;;;0.90;;
13090;SDS011;6611;52.604;13.438;2023-03-24T16:56:46;2.37;;;0.90;;
13090;SDS011;6611;52.604;13.438;2023-03-24T17:01:49;3.53;;;1.07;;
13090;SDS011;6611;52.604;13.438;2023-03-24T17:06:52;1.57;;;1.17;;
13090;SDS011;6611;52.604;13.438;2023-03-24T17:11:54;3.07;;;1.03;;
13090;SDS011;6611;52.604;13.438;2023-03-24T17:16:58;3.47;;;1.30;;
13090;SDS011;6611;52.604;13.438;2023-03-24T17:22:02;3.30;;;1.37;;
13090;SDS011;6611;52.604;13.438;2023-03-24T17:27:08;1.87;;;1.20;;
13090;SDS011;6611;52.604;13.438;2023-03-24T17:32:12;3.03;;;1.50;;
13090;SDS011;6611;52.604;13.438;2023-03-24T17:37:13;2.37;;;1.67;;
13090;SDS011;6611;52.604;13.438;2023-03-24T17:42:15;3.53;;;1.63;;
13090;SDS011;6611;52.604;13.438;2023-03-24T17:47:18;2.80;;;1.70;;
13090;SDS011;6611;52.604;13.438;2023-03-24T17:52:20;7.10;;;2.60;;
13090;SDS011;6611;52.604;13.438;2023-03-24T17:57:22;4.80;;;3.03;;
13090;SDS011;6611;52.604;13.438;2023-03-24T18:02:25;5.13;;;2.67;;
13090;SDS011;6611;52.604;13.438;2023-03-24T18:07:27;5.37;;;2.60;;
13090;SDS011;6611;52.604;13.438;2023-03-24T18:12:29;7.47;;;3.07;;
13090;SDS011;6611;52.604;13.438;2023-03-24T18:17:32;5.60;;;2.97;;
13090;SDS011;6611;52.604;13.438;2023-03-24T18:22:35;5.13;;;2.63;;
13090;SDS011;6611;52.604;13.438;2023-03-24T18:27:40;5.00;;;2.50;;
13090;SDS011;6611;52.604;13.438;2023-03-24T18:32:43;5.70;;;2.83;;
13090;SDS011;6611;52.604;13.438;2023-03-24T18:37:45;6.53;;;2.80;;
13090;SDS011;6611;52.604;13.438;2023-03-24T18:42:46;8.10;;;3.03;;
13090;SDS011;6611;52.604;13.438;2023-03-24T18:47:49;3.40;;;2.63;;
13090;SDS011;6611;52.604;13.438;2023-03-24T18:52:51;4.60;;;2.90;;
13090;SDS011;6611;52.604;13.438;2023-03-24T18:57:52;6.03;;;3.47;;
13090;SDS011;6611;52.604;13.438;2023-03-24T19:02:56;7.03;;;3.77;;
13090;SDS011;6611;52.604;13.438;2023-03-24T19:07:59;7.70;;;4.57;;
13090;SDS011;6611;52.604;13.438;2023-03-24T19:13:06;10.10;;;5.67;;
13090;SDS011;6611;52.604;13.438;2023-03-24T19:18:09;13.60;;;7.30;;
13090;SDS011;6611;52.604;13.438;2023-03-24T19:23:10;8.93;;;5.50;;
13090;SDS011;6611;52.604;13.438;2023-03-24T19:28:12;5.00;;;2.57;;
13090;SDS011;6611;52.604;13.438;2023-03-24T19:33:16;4.23;;;2.63;;
13090;SDS011;6611;52.604;13.438;2023-03-24T19:38:18;4.70;;;2.50;;
13090;SDS011;6611;52.604;13.438;2023-03-24T19:43:22;5.37;;;2.23;;
13090;SDS011;6611;52.604;13.438;2023-03-24T19:48:26;5.90;;;2.27;;
13090;SDS011;6611;52.604;13.438;2023-03-24T19:53:28;3.13;;;2.53;;
13090;SDS011;6611;52.604;13.438;2023-03-24T19:58:30;6.10;;;2.33;;
13090;SDS011;6611;52.604;13.438;2023-03-24T20:03:33;5.83;;;1.90;;
13090;SDS011;6611;52.604;13.438;2023-03-24T20:08:35;3.67;;;2.20;;
13090;SDS011;6611;52.604;13.438;2023-03-24T20:13:37;2.80;;;2.03;;
13090;SDS011;6611;52.604;13.438;2023-03-24T20:18:40;3.60;;;1.93;;
13090;SDS011;6611;52.604;13.438;2023-03-24T20:23:42;2.67;;;1.60;;
13090;SDS011;6611;52.604;13.438;2023-03-24T20:28:44;2.07;;;1.60;;
13090;SDS011;6611;52.604;13.438;2023-03-24T20:33:47;1.40;;;1.30;;
13090;SDS011;6611;52.604;13.438;2023-03-24T20:38:48;1.97;;;1.03;;
13090;SDS011;6611;52.604;13.438;2023-03-24T20:43:51;1.73;;;1.03;;
13090;SDS011;6611;52.604;13.438;2023-03-24T20:48:54;3.13;;;1.20;;
13090;SDS011;6611;52.604;13.438;2023-03-24T20:53:56;1.30;;;1.10;;
13090;SDS011;6611;52.604;13.438;2023-03-24T20:58:57;1.80;;;1.27;;
13090;SDS011;6611;52.604;13.438;2023-03-24T21:04:02;1.50;;;1.20;;
13090;SDS011;6611;52.604;13.438;2023-03-24T21:09:04;1.43;;;1.00;;
13090;SDS011;6611;52.604;13.438;2023-03-24T21:14:06;4.77;;;1.63;;
13090;SDS011;6611;52.604;13.438;2023-03-24T21:19:09;1.70;;;1.13;;
13090;SDS011;6611;52.604;13.438;2023-03-24T21:24:12;2.60;;;1.17;;
13090;SDS011;6611;52.604;13.438;2023-03-24T21:29:14;2.37;;;1.27;;
13090;SDS011;6611;52.604;13.438;2023-03-24T21:34:17;7.67;;;1.60;;
13090;SDS011;6611;52.604;13.438;2023-03-24T21:39:19;2.47;;;1.47;;
13090;SDS011;6611;52.604;13.438;2023-03-24T21:44:20;2.03;;;1.40;;
13090;SDS011;6611;52.604;13.438;2023-03-24T21:49:25;3.07;;;1.70;;
13090;SDS011;6611;52.604;13.438;2023-03-24T21:54:27;1.30;;;1.20;;
13090;SDS011;6611;52.604;13.438;2023-03-24T21:59:29;2.43;;;1.30;;
13090;SDS011;6611;52.604;13.438;2023-03-24T22:04:33;3.23;;;1.33;;
13090;SDS011;6611;52.604;13.438;2023-03-24T22:09:37;1.37;;;1.27;;
13090;SDS011;6611;52.604;13.438;2023-03-24T22:14:38;2.43;;;1.53;;
13090;SDS011;6611;52.604;13.438;2023-03-24T22:19:41;1.63;;;1.27;;
13090;SDS011;6611;52.604;13.438;2023-03-24T22:24:43;2.03;;;1.23;;
13090;SDS011;6611;52.604;13.438;2023-03-24T22:29:45;2.20;;;1.63;;
13090;SDS011;6611;52.604;13.438;2023-03-24T22:34:48;2.43;;;1.57;;
13090;SDS011;6611;52.604;13.438;2023-03-24T22:39:50;2.27;;;1.80;;
13090;SDS011;6611;52.604;13.438;2023-03-24T22:44:51;2.60;;;1.83;;
13090;SDS011;6611;52.604;13.438;2023-03-24T22:49:54;4.00;;;2.30;;
13090;SDS011;6611;52.604;13.438;2023-03-24T22:54:56;3.17;;;2.00;;
13090;SDS011;6611;52.604;13.438;2023-03-24T22:59:57;4.23;;;1.97;;
13090;SDS011;6611;52.604;13.438;2023-03-24T23:05:02;5.37;;;2.40;;
13090;SDS011;6611;52.604;13.438;2023-03-24T23:10:04;4.90;;;2.60;;
13090;SDS011;6611;52.604;13.438;2023-03-24T23:15:07;5.77;;;1.70;;
13090;SDS011;6611;52.604;13.438;2023-03-24T23:20:14;2.90;;;1.50;;
13090;SDS011;6611;52.604;13.438;2023-03-24T23:25:16;5.90;;;2.30;;
13090;SDS011;6611;52.604;13.438;2023-03-24T23:30:19;5.53;;;3.17;;
13090;SDS011;6611;52.604;13.438;2023-03-24T23:35:22;4.20;;;2.10;;
13090;SDS011;6611;52.604;13.438;2023-03-24T23:40:24;2.20;;;1.60;;
13090;SDS011;6611;52.604;13.438;2023-03-24T23:45:26;2.53;;;1.43;;
13090;SDS011;6611;52.604;13.438;2023-03-24T23:50:29;3.20;;;1.43;;
13090;SDS011;6611;52.604;13.438;2023-03-24T23:55:31;4.30;;;1.50;;
